sensor_id;sensor_type;location;lat;lon;timestamp;P1;durP1;ratioP1;P2;durP2;ratioP2
60979;SDS011;46851;49.160;8.980;2023-12-07T00:02:08;34.80;;;16.45;;
60979;SDS011;46851;49.160;8.980;2023-12-07T00:04:34;34.70;;;16.35;;
60979;SDS011;46851;49.160;8.980;2023-12-07T00:07:00;39.42;;;17.13;;
60979;SDS011;46851;49.160;8.980;2023-12-07T00:09:26;31.90;;;17.20;;
60979;SDS011;46851;49.160;8.980;2023-12-07T00:11:52;32.15;;;16.45;;
60979;SDS011;46851;49.160;8.980;2023-12-07T00:14:18;32.28;;;17.20;;
60979;SDS011;46851;49.160;8.980;2023-12-07T00:16:44;36.22;;;16.83;;
60979;SDS011;46851;49.160;8.980;2023-12-07T00:19:10;34.97;;;16.75;;
60979;SDS011;46851;49.160;8.980;2023-12-07T00:21:36;32.15;;;16.02;;
60979;SDS011;46851;49.160;8.980;2023-12-07T00:24:02;33.90;;;16.45;;
60979;SDS011;46851;49.160;8.980;2023-12-07T00:26:28;32.90;;;15.80;;
60979;SDS011;46851;49.160;8.980;2023-12-07T00:28:54;35.30;;;16.67;;
60979;SDS011;46851;49.160;8.980;2023-12-07T00:31:20;31.02;;;15.20;;
60979;SDS011;46851;49.160;8.980;2023-12-07T00:33:46;33.75;;;16.77;;
60979;SDS011;46851;49.160;8.980;2023-12-07T00:36:12;35.70;;;16.83;;
60979;SDS011;46851;49.160;8.980;2023-12-07T00:38:38;32.25;;;15.88;;
60979;SDS011;46851;49.160;8.980;2023-12-07T00:41:04;31.92;;;17.02;;
60979;SDS011;46851;49.160;8.980;2023-12-07T00:43:30;28.60;;;14.88;;
60979;SDS011;46851;49.160;8.980;2023-12-07T00:45:56;27.00;;;14.73;;
60979;SDS011;46851;49.160;8.980;2023-12-07T00:48:22;27.35;;;15.15;;
60979;SDS011;46851;49.160;8.980;2023-12-07T00:50:48;33.30;;;15.43;;
60979;SDS011;46851;49.160;8.980;2023-12-07T00:53:14;29.70;;;14.88;;
60979;SDS011;46851;49.160;8.980;2023-12-07T00:55:40;33.30;;;16.35;;
60979;SDS011;46851;49.160;8.980;2023-12-07T00:58:06;31.83;;;15.45;;
60979;SDS011;46851;49.160;8.980;2023-12-07T01:00:32;29.90;;;14.88;;
60979;SDS011;46851;49.160;8.980;2023-12-07T01:02:58;34.53;;;15.77;;
60979;SDS011;46851;49.160;8.980;2023-12-07T01:05:25;32.20;;;14.90;;
60979;SDS011;46851;49.160;8.980;2023-12-07T01:07:51;28.83;;;15.50;;
60979;SDS011;46851;49.160;8.980;2023-12-07T01:10:17;30.67;;;15.52;;
60979;SDS011;46851;49.160;8.980;2023-12-07T01:12:44;33.40;;;15.45;;
60979;SDS011;46851;49.160;8.980;2023-12-07T01:15:10;27.35;;;13.98;;
60979;SDS011;46851;49.160;8.980;2023-12-07T01:17:36;32.60;;;15.23;;
60979;SDS011;46851;49.160;8.980;2023-12-07T01:20:02;30.38;;;15.02;;
60979;SDS011;46851;49.160;8.980;2023-12-07T01:22:29;30.77;;;15.40;;
60979;SDS011;46851;49.160;8.980;2023-12-07T01:24:55;29.58;;;13.50;;
60979;SDS011;46851;49.160;8.980;2023-12-07T01:27:21;29.05;;;14.07;;
60979;SDS011;46851;49.160;8.980;2023-12-07T01:29:47;28.15;;;14.32;;
60979;SDS011;46851;49.160;8.980;2023-12-07T01:32:13;33.58;;;15.48;;
60979;SDS011;46851;49.160;8.980;2023-12-07T01:34:41;30.70;;;14.40;;
60979;SDS011;46851;49.160;8.980;2023-12-07T01:37:06;34.33;;;16.17;;
60979;SDS011;46851;49.160;8.980;2023-12-07T01:39:32;33.10;;;14.85;;
60979;SDS011;46851;49.160;8.980;2023-12-07T01:41:58;36.75;;;14.60;;
60979;SDS011;46851;49.160;8.980;2023-12-07T01:44:24;29.58;;;14.73;;
60979;SDS011;46851;49.160;8.980;2023-12-07T01:46:52;31.83;;;15.60;;
60979;SDS011;46851;49.160;8.980;2023-12-07T01:49:19;32.22;;;15.90;;
60979;SDS011;46851;49.160;8.980;2023-12-07T01:51:45;33.63;;;14.77;;
60979;SDS011;46851;49.160;8.980;2023-12-07T01:54:11;36.60;;;16.70;;
60979;SDS011;46851;49.160;8.980;2023-12-07T01:56:37;33.88;;;16.00;;
60979;SDS011;46851;49.160;8.980;2023-12-07T01:59:03;33.17;;;16.88;;
60979;SDS011;46851;49.160;8.980;2023-12-07T02:01:29;34.75;;;15.35;;
60979;SDS011;46851;49.160;8.980;2023-12-07T02:03:55;32.30;;;15.27;;
60979;SDS011;46851;49.160;8.980;2023-12-07T02:06:22;34.75;;;16.05;;
60979;SDS011;46851;49.160;8.980;2023-12-07T02:08:48;31.13;;;14.82;;
60979;SDS011;46851;49.160;8.980;2023-12-07T02:11:14;34.88;;;16.02;;
60979;SDS011;46851;49.160;8.980;2023-12-07T02:13:40;36.53;;;16.50;;
60979;SDS011;46851;49.160;8.980;2023-12-07T02:16:23;31.90;;;15.70;;
60979;SDS011;46851;49.160;8.980;2023-12-07T02:18:51;33.53;;;15.65;;
60979;SDS011;46851;49.160;8.980;2023-12-07T02:21:33;36.38;;;16.02;;
60979;SDS011;46851;49.160;8.980;2023-12-07T02:24:00;38.92;;;17.73;;
60979;SDS011;46851;49.160;8.980;2023-12-07T02:26:30;35.33;;;16.75;;
60979;SDS011;46851;49.160;8.980;2023-12-07T02:28:56;35.30;;;15.87;;
60979;SDS011;46851;49.160;8.980;2023-12-07T02:31:22;37.25;;;16.80;;
60979;SDS011;46851;49.160;8.980;2023-12-07T02:33:48;42.85;;;17.27;;
60979;SDS011;46851;49.160;8.980;2023-12-07T02:36:15;36.95;;;16.77;;
60979;SDS011;46851;49.160;8.980;2023-12-07T02:38:42;35.72;;;16.25;;
60979;SDS011;46851;49.160;8.980;2023-12-07T02:41:09;38.65;;;16.85;;
60979;SDS011;46851;49.160;8.980;2023-12-07T02:43:36;39.03;;;17.23;;
60979;SDS011;46851;49.160;8.980;2023-12-07T02:46:03;38.28;;;16.58;;
60979;SDS011;46851;49.160;8.980;2023-12-07T02:48:29;38.85;;;16.65;;
60979;SDS011;46851;49.160;8.980;2023-12-07T02:50:55;36.08;;;16.63;;
60979;SDS011;46851;49.160;8.980;2023-12-07T02:53:21;40.50;;;16.95;;
60979;SDS011;46851;49.160;8.980;2023-12-07T02:55:48;37.22;;;17.05;;
60979;SDS011;46851;49.160;8.980;2023-12-07T02:58:16;38.22;;;17.40;;
60979;SDS011;46851;49.160;8.980;2023-12-07T03:03:49;40.25;;;17.88;;
60979;SDS011;46851;49.160;8.980;2023-12-07T03:06:15;38.03;;;17.15;;
60979;SDS011;46851;49.160;8.980;2023-12-07T03:08:44;42.37;;;17.33;;
60979;SDS011;46851;49.160;8.980;2023-12-07T03:11:11;39.35;;;16.85;;
60979;SDS011;46851;49.160;8.980;2023-12-07T03:13:37;43.80;;;17.17;;
60979;SDS011;46851;49.160;8.980;2023-12-07T03:16:06;36.78;;;16.10;;
60979;SDS011;46851;49.160;8.980;2023-12-07T03:18:33;38.55;;;18.02;;
60979;SDS011;46851;49.160;8.980;2023-12-07T03:21:01;39.30;;;17.42;;
60979;SDS011;46851;49.160;8.980;2023-12-07T03:23:27;38.75;;;18.13;;
60979;SDS011;46851;49.160;8.980;2023-12-07T03:25:53;39.88;;;17.30;;
60979;SDS011;46851;49.160;8.980;2023-12-07T03:28:19;39.17;;;16.25;;
60979;SDS011;46851;49.160;8.980;2023-12-07T03:30:45;39.83;;;16.10;;
60979;SDS011;46851;49.160;8.980;2023-12-07T03:33:11;37.92;;;17.63;;
60979;SDS011;46851;49.160;8.980;2023-12-07T03:35:38;31.95;;;15.70;;
60979;SDS011;46851;49.160;8.980;2023-12-07T03:38:04;36.03;;;16.77;;
60979;SDS011;46851;49.160;8.980;2023-12-07T03:40:30;34.85;;;16.13;;
60979;SDS011;46851;49.160;8.980;2023-12-07T03:42:55;33.78;;;16.17;;
60979;SDS011;46851;49.160;8.980;2023-12-07T03:45:22;34.95;;;16.25;;
60979;SDS011;46851;49.160;8.980;2023-12-07T03:47:48;32.05;;;14.75;;
60979;SDS011;46851;49.160;8.980;2023-12-07T03:50:15;37.72;;;15.50;;
60979;SDS011;46851;49.160;8.980;2023-12-07T03:52:41;30.75;;;14.88;;
60979;SDS011;46851;49.160;8.980;2023-12-07T03:55:07;36.38;;;15.48;;
60979;SDS011;46851;49.160;8.980;2023-12-07T03:57:33;34.38;;;15.25;;
60979;SDS011;46851;49.160;8.980;2023-12-07T03:59:59;33.38;;;15.80;;
60979;SDS011;46851;49.160;8.980;2023-12-07T04:02:25;31.48;;;15.32;;
60979;SDS011;46851;49.160;8.980;2023-12-07T04:04:52;33.92;;;14.80;;
60979;SDS011;46851;49.160;8.980;2023-12-07T04:07:18;36.25;;;15.60;;
60979;SDS011;46851;49.160;8.980;2023-12-07T04:09:43;34.53;;;16.00;;
60979;SDS011;46851;49.160;8.980;2023-12-07T04:12:10;33.30;;;15.80;;
60979;SDS011;46851;49.160;8.980;2023-12-07T04:14:36;35.10;;;14.88;;
60979;SDS011;46851;49.160;8.980;2023-12-07T04:17:02;38.53;;;16.15;;
60979;SDS011;46851;49.160;8.980;2023-12-07T04:19:28;32.97;;;15.90;;
60979;SDS011;46851;49.160;8.980;2023-12-07T04:21:54;38.63;;;16.25;;
60979;SDS011;46851;49.160;8.980;2023-12-07T04:24:20;36.08;;;16.00;;
60979;SDS011;46851;49.160;8.980;2023-12-07T04:26:46;38.97;;;16.50;;
60979;SDS011;46851;49.160;8.980;2023-12-07T04:29:14;36.00;;;15.43;;
60979;SDS011;46851;49.160;8.980;2023-12-07T04:31:40;35.90;;;15.95;;
60979;SDS011;46851;49.160;8.980;2023-12-07T04:34:06;39.75;;;16.38;;
60979;SDS011;46851;49.160;8.980;2023-12-07T04:36:32;43.25;;;18.02;;
60979;SDS011;46851;49.160;8.980;2023-12-07T04:38:58;38.65;;;18.23;;
60979;SDS011;46851;49.160;8.980;2023-12-07T04:41:24;45.03;;;18.05;;
60979;SDS011;46851;49.160;8.980;2023-12-07T04:43:50;44.25;;;18.05;;
60979;SDS011;46851;49.160;8.980;2023-12-07T04:46:16;38.88;;;17.10;;
60979;SDS011;46851;49.160;8.980;2023-12-07T04:48:42;46.13;;;17.88;;
60979;SDS011;46851;49.160;8.980;2023-12-07T04:51:08;47.05;;;18.40;;
60979;SDS011;46851;49.160;8.980;2023-12-07T04:53:34;43.08;;;18.42;;
60979;SDS011;46851;49.160;8.980;2023-12-07T04:56:00;46.00;;;18.88;;
60979;SDS011;46851;49.160;8.980;2023-12-07T04:58:26;42.22;;;18.58;;
60979;SDS011;46851;49.160;8.980;2023-12-07T05:00:52;47.05;;;19.20;;
60979;SDS011;46851;49.160;8.980;2023-12-07T05:03:18;50.53;;;19.00;;
60979;SDS011;46851;49.160;8.980;2023-12-07T05:05:44;57.35;;;20.02;;
60979;SDS011;46851;49.160;8.980;2023-12-07T05:08:10;49.72;;;20.35;;
60979;SDS011;46851;49.160;8.980;2023-12-07T05:10:36;50.42;;;19.58;;
60979;SDS011;46851;49.160;8.980;2023-12-07T05:13:03;46.55;;;18.10;;
60979;SDS011;46851;49.160;8.980;2023-12-07T05:15:29;39.75;;;17.95;;
60979;SDS011;46851;49.160;8.980;2023-12-07T05:17:55;41.05;;;18.00;;
60979;SDS011;46851;49.160;8.980;2023-12-07T05:20:21;42.58;;;17.98;;
60979;SDS011;46851;49.160;8.980;2023-12-07T05:22:49;46.55;;;17.90;;
60979;SDS011;46851;49.160;8.980;2023-12-07T05:25:15;40.00;;;15.98;;
60979;SDS011;46851;49.160;8.980;2023-12-07T05:27:41;40.47;;;17.65;;
60979;SDS011;46851;49.160;8.980;2023-12-07T05:30:07;46.55;;;19.00;;
60979;SDS011;46851;49.160;8.980;2023-12-07T05:32:34;45.40;;;20.17;;
60979;SDS011;46851;49.160;8.980;2023-12-07T05:35:00;44.42;;;20.33;;
60979;SDS011;46851;49.160;8.980;2023-12-07T05:37:26;51.72;;;20.30;;
60979;SDS011;46851;49.160;8.980;2023-12-07T05:39:52;50.83;;;19.33;;
60979;SDS011;46851;49.160;8.980;2023-12-07T05:42:18;45.13;;;18.90;;
60979;SDS011;46851;49.160;8.980;2023-12-07T05:44:44;54.80;;;19.90;;
60979;SDS011;46851;49.160;8.980;2023-12-07T05:47:10;49.72;;;20.10;;
60979;SDS011;46851;49.160;8.980;2023-12-07T05:49:36;47.50;;;19.17;;
60979;SDS011;46851;49.160;8.980;2023-12-07T05:52:02;50.33;;;19.73;;
60979;SDS011;46851;49.160;8.980;2023-12-07T05:54:28;52.28;;;17.60;;
60979;SDS011;46851;49.160;8.980;2023-12-07T05:56:54;46.70;;;17.42;;
60979;SDS011;46851;49.160;8.980;2023-12-07T05:59:20;46.63;;;18.42;;
60979;SDS011;46851;49.160;8.980;2023-12-07T06:01:47;41.60;;;17.98;;
60979;SDS011;46851;49.160;8.980;2023-12-07T06:04:13;47.58;;;18.77;;
60979;SDS011;46851;49.160;8.980;2023-12-07T06:06:41;46.00;;;17.65;;
60979;SDS011;46851;49.160;8.980;2023-12-07T06:09:07;47.80;;;18.48;;
60979;SDS011;46851;49.160;8.980;2023-12-07T06:11:33;48.05;;;18.17;;
60979;SDS011;46851;49.160;8.980;2023-12-07T06:14:02;46.23;;;19.23;;
60979;SDS011;46851;49.160;8.980;2023-12-07T06:16:31;47.30;;;19.38;;
60979;SDS011;46851;49.160;8.980;2023-12-07T06:18:57;49.67;;;19.80;;
60979;SDS011;46851;49.160;8.980;2023-12-07T06:21:23;80.35;;;34.42;;
60979;SDS011;46851;49.160;8.980;2023-12-07T06:23:50;49.22;;;19.45;;
60979;SDS011;46851;49.160;8.980;2023-12-07T06:26:17;45.08;;;19.20;;
60979;SDS011;46851;49.160;8.980;2023-12-07T06:28:43;49.15;;;20.75;;
60979;SDS011;46851;49.160;8.980;2023-12-07T06:31:09;51.08;;;20.45;;
60979;SDS011;46851;49.160;8.980;2023-12-07T06:33:35;49.28;;;20.00;;
60979;SDS011;46851;49.160;8.980;2023-12-07T06:36:01;47.88;;;19.15;;
60979;SDS011;46851;49.160;8.980;2023-12-07T06:38:30;56.15;;;20.75;;
60979;SDS011;46851;49.160;8.980;2023-12-07T06:40:56;53.25;;;21.05;;
60979;SDS011;46851;49.160;8.980;2023-12-07T06:43:23;56.03;;;20.65;;
60979;SDS011;46851;49.160;8.980;2023-12-07T06:45:49;52.28;;;19.70;;
60979;SDS011;46851;49.160;8.980;2023-12-07T06:48:15;60.53;;;20.95;;
60979;SDS011;46851;49.160;8.980;2023-12-07T06:50:41;57.05;;;22.45;;
60979;SDS011;46851;49.160;8.980;2023-12-07T06:53:07;57.55;;;22.38;;
60979;SDS011;46851;49.160;8.980;2023-12-07T06:55:33;64.85;;;25.65;;
60979;SDS011;46851;49.160;8.980;2023-12-07T06:57:59;59.60;;;24.02;;
60979;SDS011;46851;49.160;8.980;2023-12-07T07:00:25;58.70;;;22.70;;
60979;SDS011;46851;49.160;8.980;2023-12-07T07:02:50;59.42;;;23.02;;
60979;SDS011;46851;49.160;8.980;2023-12-07T07:05:16;55.13;;;21.05;;
60979;SDS011;46851;49.160;8.980;2023-12-07T07:07:42;51.72;;;20.38;;
60979;SDS011;46851;49.160;8.980;2023-12-07T07:10:09;57.97;;;21.63;;
60979;SDS011;46851;49.160;8.980;2023-12-07T07:12:36;57.55;;;21.73;;
60979;SDS011;46851;49.160;8.980;2023-12-07T07:15:02;59.90;;;22.17;;
60979;SDS011;46851;49.160;8.980;2023-12-07T07:17:28;56.90;;;22.15;;
60979;SDS011;46851;49.160;8.980;2023-12-07T07:19:54;53.20;;;21.00;;
60979;SDS011;46851;49.160;8.980;2023-12-07T07:22:20;72.40;;;24.60;;
60979;SDS011;46851;49.160;8.980;2023-12-07T07:24:47;53.13;;;21.73;;
60979;SDS011;46851;49.160;8.980;2023-12-07T07:27:13;54.05;;;21.52;;
60979;SDS011;46851;49.160;8.980;2023-12-07T07:29:39;49.25;;;21.55;;
60979;SDS011;46851;49.160;8.980;2023-12-07T07:32:05;55.05;;;22.27;;
60979;SDS011;46851;49.160;8.980;2023-12-07T07:34:31;53.17;;;22.15;;
60979;SDS011;46851;49.160;8.980;2023-12-07T07:36:57;54.80;;;21.17;;
60979;SDS011;46851;49.160;8.980;2023-12-07T07:39:23;51.53;;;21.85;;
60979;SDS011;46851;49.160;8.980;2023-12-07T07:41:49;47.25;;;20.50;;
60979;SDS011;46851;49.160;8.980;2023-12-07T07:44:18;53.53;;;21.43;;
60979;SDS011;46851;49.160;8.980;2023-12-07T07:46:44;50.53;;;21.15;;
60979;SDS011;46851;49.160;8.980;2023-12-07T07:49:12;48.45;;;19.55;;
60979;SDS011;46851;49.160;8.980;2023-12-07T07:51:38;51.42;;;22.02;;
60979;SDS011;46851;49.160;8.980;2023-12-07T07:54:04;50.25;;;20.52;;
60979;SDS011;46851;49.160;8.980;2023-12-07T07:56:30;49.78;;;21.17;;
60979;SDS011;46851;49.160;8.980;2023-12-07T07:58:57;50.22;;;21.67;;
60979;SDS011;46851;49.160;8.980;2023-12-07T08:01:25;55.22;;;23.05;;
60979;SDS011;46851;49.160;8.980;2023-12-07T08:03:51;53.45;;;24.67;;
60979;SDS011;46851;49.160;8.980;2023-12-07T08:06:17;53.35;;;23.95;;
60979;SDS011;46851;49.160;8.980;2023-12-07T08:08:43;45.92;;;21.73;;
60979;SDS011;46851;49.160;8.980;2023-12-07T08:11:09;36.92;;;17.52;;
60979;SDS011;46851;49.160;8.980;2023-12-07T08:13:35;99.43;;;34.38;;
60979;SDS011;46851;49.160;8.980;2023-12-07T08:16:02;58.85;;;23.65;;
60979;SDS011;46851;49.160;8.980;2023-12-07T08:18:28;43.22;;;19.90;;
60979;SDS011;46851;49.160;8.980;2023-12-07T08:20:54;35.53;;;17.00;;
60979;SDS011;46851;49.160;8.980;2023-12-07T08:23:20;42.78;;;18.45;;
60979;SDS011;46851;49.160;8.980;2023-12-07T08:25:46;32.70;;;15.40;;
60979;SDS011;46851;49.160;8.980;2023-12-07T08:28:13;29.30;;;15.05;;
60979;SDS011;46851;49.160;8.980;2023-12-07T08:30:39;28.45;;;14.48;;
60979;SDS011;46851;49.160;8.980;2023-12-07T08:33:05;36.83;;;18.35;;
60979;SDS011;46851;49.160;8.980;2023-12-07T08:35:31;44.03;;;17.17;;
60979;SDS011;46851;49.160;8.980;2023-12-07T08:37:57;38.00;;;18.17;;
60979;SDS011;46851;49.160;8.980;2023-12-07T08:40:23;41.85;;;19.10;;
60979;SDS011;46851;49.160;8.980;2023-12-07T08:42:49;34.05;;;18.55;;
60979;SDS011;46851;49.160;8.980;2023-12-07T08:45:15;32.90;;;17.10;;
60979;SDS011;46851;49.160;8.980;2023-12-07T08:47:41;25.63;;;14.45;;
60979;SDS011;46851;49.160;8.980;2023-12-07T08:50:07;26.08;;;14.70;;
60979;SDS011;46851;49.160;8.980;2023-12-07T08:52:34;25.55;;;14.60;;
60979;SDS011;46851;49.160;8.980;2023-12-07T08:55:00;23.27;;;13.50;;
60979;SDS011;46851;49.160;8.980;2023-12-07T08:57:26;23.17;;;13.52;;
60979;SDS011;46851;49.160;8.980;2023-12-07T08:59:52;22.35;;;12.93;;
60979;SDS011;46851;49.160;8.980;2023-12-07T09:02:19;24.35;;;13.73;;
60979;SDS011;46851;49.160;8.980;2023-12-07T09:04:45;25.92;;;14.50;;
60979;SDS011;46851;49.160;8.980;2023-12-07T09:07:11;25.48;;;14.32;;
60979;SDS011;46851;49.160;8.980;2023-12-07T09:09:40;24.80;;;13.10;;
60979;SDS011;46851;49.160;8.980;2023-12-07T09:12:12;23.77;;;12.85;;
60979;SDS011;46851;49.160;8.980;2023-12-07T09:14:38;27.75;;;15.50;;
60979;SDS011;46851;49.160;8.980;2023-12-07T09:17:03;19.63;;;13.05;;
60979;SDS011;46851;49.160;8.980;2023-12-07T09:19:29;21.40;;;11.63;;
60979;SDS011;46851;49.160;8.980;2023-12-07T09:21:55;19.45;;;12.48;;
60979;SDS011;46851;49.160;8.980;2023-12-07T09:24:21;17.98;;;11.00;;
60979;SDS011;46851;49.160;8.980;2023-12-07T09:26:47;20.08;;;11.07;;
60979;SDS011;46851;49.160;8.980;2023-12-07T09:29:14;17.25;;;11.10;;
60979;SDS011;46851;49.160;8.980;2023-12-07T09:31:40;16.40;;;10.25;;
60979;SDS011;46851;49.160;8.980;2023-12-07T09:34:06;16.02;;;10.45;;
60979;SDS011;46851;49.160;8.980;2023-12-07T09:36:35;15.25;;;9.18;;
60979;SDS011;46851;49.160;8.980;2023-12-07T09:39:01;14.77;;;9.02;;
60979;SDS011;46851;49.160;8.980;2023-12-07T09:41:28;16.13;;;9.27;;
60979;SDS011;46851;49.160;8.980;2023-12-07T09:43:54;15.50;;;9.70;;
60979;SDS011;46851;49.160;8.980;2023-12-07T09:46:21;15.07;;;9.75;;
60979;SDS011;46851;49.160;8.980;2023-12-07T09:48:47;16.52;;;10.30;;
60979;SDS011;46851;49.160;8.980;2023-12-07T09:51:17;13.57;;;9.07;;
60979;SDS011;46851;49.160;8.980;2023-12-07T09:53:44;16.83;;;9.45;;
60979;SDS011;46851;49.160;8.980;2023-12-07T09:56:10;14.98;;;8.38;;
60979;SDS011;46851;49.160;8.980;2023-12-07T09:58:38;14.52;;;9.23;;
60979;SDS011;46851;49.160;8.980;2023-12-07T10:01:05;16.48;;;9.93;;
60979;SDS011;46851;49.160;8.980;2023-12-07T10:03:31;16.38;;;10.15;;
60979;SDS011;46851;49.160;8.980;2023-12-07T10:05:58;15.60;;;10.02;;
60979;SDS011;46851;49.160;8.980;2023-12-07T10:08:25;15.85;;;9.68;;
60979;SDS011;46851;49.160;8.980;2023-12-07T10:11:02;16.20;;;9.55;;
60979;SDS011;46851;49.160;8.980;2023-12-07T10:13:32;16.65;;;9.93;;
60979;SDS011;46851;49.160;8.980;2023-12-07T10:16:16;17.33;;;10.23;;
60979;SDS011;46851;49.160;8.980;2023-12-07T10:18:44;17.38;;;10.98;;
60979;SDS011;46851;49.160;8.980;2023-12-07T10:21:10;17.58;;;11.20;;
60979;SDS011;46851;49.160;8.980;2023-12-07T10:23:36;20.48;;;10.82;;
60979;SDS011;46851;49.160;8.980;2023-12-07T10:26:03;14.60;;;9.43;;
60979;SDS011;46851;49.160;8.980;2023-12-07T10:28:30;15.60;;;9.57;;
60979;SDS011;46851;49.160;8.980;2023-12-07T10:30:56;17.77;;;9.60;;
60979;SDS011;46851;49.160;8.980;2023-12-07T10:33:25;15.88;;;10.05;;
60979;SDS011;46851;49.160;8.980;2023-12-07T10:35:51;16.23;;;9.43;;
60979;SDS011;46851;49.160;8.980;2023-12-07T10:38:17;15.57;;;9.07;;
60979;SDS011;46851;49.160;8.980;2023-12-07T10:40:45;14.68;;;9.15;;
60979;SDS011;46851;49.160;8.980;2023-12-07T10:43:12;17.40;;;10.10;;
60979;SDS011;46851;49.160;8.980;2023-12-07T10:45:38;13.85;;;8.90;;
60979;SDS011;46851;49.160;8.980;2023-12-07T10:48:07;16.40;;;9.60;;
60979;SDS011;46851;49.160;8.980;2023-12-07T10:50:42;17.05;;;9.93;;
60979;SDS011;46851;49.160;8.980;2023-12-07T10:55:55;19.00;;;9.95;;
60979;SDS011;46851;49.160;8.980;2023-12-07T10:58:22;19.08;;;9.68;;
60979;SDS011;46851;49.160;8.980;2023-12-07T11:00:50;15.38;;;9.77;;
60979;SDS011;46851;49.160;8.980;2023-12-07T11:03:17;16.50;;;10.32;;
60979;SDS011;46851;49.160;8.980;2023-12-07T11:05:45;18.73;;;10.45;;
60979;SDS011;46851;49.160;8.980;2023-12-07T11:08:14;19.70;;;10.15;;
60979;SDS011;46851;49.160;8.980;2023-12-07T11:15:52;20.55;;;10.95;;
60979;SDS011;46851;49.160;8.980;2023-12-07T11:18:18;19.20;;;10.60;;
60979;SDS011;46851;49.160;8.980;2023-12-07T11:20:45;15.70;;;9.32;;
60979;SDS011;46851;49.160;8.980;2023-12-07T11:23:17;20.20;;;9.82;;
60979;SDS011;46851;49.160;8.980;2023-12-07T11:25:44;16.02;;;9.52;;
60979;SDS011;46851;49.160;8.980;2023-12-07T11:28:11;17.17;;;10.27;;
60979;SDS011;46851;49.160;8.980;2023-12-07T11:30:37;19.27;;;10.85;;
60979;SDS011;46851;49.160;8.980;2023-12-07T11:33:05;18.60;;;10.90;;
60979;SDS011;46851;49.160;8.980;2023-12-07T11:35:32;20.38;;;11.80;;
60979;SDS011;46851;49.160;8.980;2023-12-07T11:40:31;17.90;;;10.77;;
60979;SDS011;46851;49.160;8.980;2023-12-07T11:43:00;19.10;;;10.98;;
60979;SDS011;46851;49.160;8.980;2023-12-07T11:45:42;19.40;;;10.00;;
60979;SDS011;46851;49.160;8.980;2023-12-07T11:48:13;18.85;;;10.25;;
60979;SDS011;46851;49.160;8.980;2023-12-07T11:50:59;16.02;;;9.82;;
60979;SDS011;46851;49.160;8.980;2023-12-07T11:53:26;20.05;;;10.27;;
60979;SDS011;46851;49.160;8.980;2023-12-07T11:55:54;17.33;;;10.55;;
60979;SDS011;46851;49.160;8.980;2023-12-07T11:58:21;20.98;;;10.57;;
60979;SDS011;46851;49.160;8.980;2023-12-07T12:00:47;19.05;;;10.30;;
60979;SDS011;46851;49.160;8.980;2023-12-07T12:03:13;23.30;;;10.23;;
60979;SDS011;46851;49.160;8.980;2023-12-07T12:05:40;17.58;;;9.85;;
60979;SDS011;46851;49.160;8.980;2023-12-07T12:08:08;25.52;;;11.25;;
60979;SDS011;46851;49.160;8.980;2023-12-07T12:10:34;17.15;;;10.25;;
60979;SDS011;46851;49.160;8.980;2023-12-07T12:13:03;19.00;;;9.60;;
60979;SDS011;46851;49.160;8.980;2023-12-07T12:15:29;19.40;;;10.77;;
60979;SDS011;46851;49.160;8.980;2023-12-07T12:17:56;20.80;;;12.07;;
60979;SDS011;46851;49.160;8.980;2023-12-07T12:20:22;23.40;;;12.27;;
60979;SDS011;46851;49.160;8.980;2023-12-07T12:22:49;22.17;;;11.32;;
60979;SDS011;46851;49.160;8.980;2023-12-07T12:25:18;20.40;;;11.57;;
60979;SDS011;46851;49.160;8.980;2023-12-07T12:27:45;21.42;;;11.25;;
60979;SDS011;46851;49.160;8.980;2023-12-07T12:30:11;20.02;;;10.32;;
60979;SDS011;46851;49.160;8.980;2023-12-07T12:32:44;17.02;;;9.68;;
60979;SDS011;46851;49.160;8.980;2023-12-07T12:35:10;21.15;;;10.20;;
60979;SDS011;46851;49.160;8.980;2023-12-07T12:37:41;18.77;;;10.15;;
60979;SDS011;46851;49.160;8.980;2023-12-07T12:40:08;19.85;;;11.13;;
60979;SDS011;46851;49.160;8.980;2023-12-07T12:42:34;23.48;;;11.93;;
60979;SDS011;46851;49.160;8.980;2023-12-07T12:45:04;22.83;;;12.00;;
60979;SDS011;46851;49.160;8.980;2023-12-07T12:47:30;25.02;;;13.30;;
60979;SDS011;46851;49.160;8.980;2023-12-07T12:49:56;25.77;;;12.73;;
60979;SDS011;46851;49.160;8.980;2023-12-07T12:52:23;21.60;;;11.27;;
60979;SDS011;46851;49.160;8.980;2023-12-07T12:54:50;19.27;;;11.05;;
60979;SDS011;46851;49.160;8.980;2023-12-07T12:57:17;20.27;;;11.50;;
60979;SDS011;46851;49.160;8.980;2023-12-07T12:59:44;20.65;;;10.82;;
60979;SDS011;46851;49.160;8.980;2023-12-07T13:02:13;20.75;;;11.50;;
60979;SDS011;46851;49.160;8.980;2023-12-07T13:04:42;21.67;;;13.03;;
60979;SDS011;46851;49.160;8.980;2023-12-07T13:07:11;23.63;;;12.10;;
60979;SDS011;46851;49.160;8.980;2023-12-07T13:09:41;25.33;;;11.90;;
60979;SDS011;46851;49.160;8.980;2023-12-07T13:12:09;23.17;;;12.82;;
60979;SDS011;46851;49.160;8.980;2023-12-07T13:14:35;26.40;;;11.95;;
60979;SDS011;46851;49.160;8.980;2023-12-07T13:17:03;23.40;;;12.57;;
60979;SDS011;46851;49.160;8.980;2023-12-07T13:19:29;21.00;;;11.90;;
60979;SDS011;46851;49.160;8.980;2023-12-07T13:21:56;25.98;;;12.55;;
60979;SDS011;46851;49.160;8.980;2023-12-07T13:24:22;21.05;;;11.75;;
60979;SDS011;46851;49.160;8.980;2023-12-07T13:26:48;21.63;;;11.48;;
60979;SDS011;46851;49.160;8.980;2023-12-07T13:29:14;23.98;;;12.40;;
60979;SDS011;46851;49.160;8.980;2023-12-07T13:31:40;21.63;;;11.98;;
60979;SDS011;46851;49.160;8.980;2023-12-07T13:34:07;34.05;;;13.43;;
60979;SDS011;46851;49.160;8.980;2023-12-07T13:36:36;22.30;;;11.10;;
60979;SDS011;46851;49.160;8.980;2023-12-07T13:39:02;24.47;;;12.40;;
60979;SDS011;46851;49.160;8.980;2023-12-07T13:41:28;22.92;;;11.10;;
60979;SDS011;46851;49.160;8.980;2023-12-07T13:43:54;22.13;;;12.10;;
60979;SDS011;46851;49.160;8.980;2023-12-07T13:46:20;21.83;;;11.15;;
60979;SDS011;46851;49.160;8.980;2023-12-07T13:48:46;23.20;;;12.02;;
60979;SDS011;46851;49.160;8.980;2023-12-07T13:51:12;25.55;;;12.15;;
60979;SDS011;46851;49.160;8.980;2023-12-07T13:53:38;22.23;;;10.85;;
60979;SDS011;46851;49.160;8.980;2023-12-07T13:56:05;23.83;;;10.30;;
60979;SDS011;46851;49.160;8.980;2023-12-07T13:58:32;18.63;;;10.57;;
60979;SDS011;46851;49.160;8.980;2023-12-07T14:01:00;17.30;;;10.07;;
60979;SDS011;46851;49.160;8.980;2023-12-07T14:03:26;19.13;;;9.57;;
60979;SDS011;46851;49.160;8.980;2023-12-07T14:05:52;17.20;;;9.63;;
60979;SDS011;46851;49.160;8.980;2023-12-07T14:08:18;20.58;;;10.75;;
60979;SDS011;46851;49.160;8.980;2023-12-07T14:10:48;17.60;;;9.77;;
60979;SDS011;46851;49.160;8.980;2023-12-07T14:13:17;19.10;;;9.77;;
60979;SDS011;46851;49.160;8.980;2023-12-07T14:15:44;16.50;;;9.63;;
60979;SDS011;46851;49.160;8.980;2023-12-07T14:18:10;16.00;;;8.77;;
60979;SDS011;46851;49.160;8.980;2023-12-07T14:20:42;15.93;;;8.93;;
60979;SDS011;46851;49.160;8.980;2023-12-07T14:23:09;16.45;;;8.48;;
60979;SDS011;46851;49.160;8.980;2023-12-07T14:25:38;17.90;;;9.10;;
60979;SDS011;46851;49.160;8.980;2023-12-07T14:28:05;17.63;;;8.95;;
60979;SDS011;46851;49.160;8.980;2023-12-07T14:30:32;19.38;;;9.07;;
60979;SDS011;46851;49.160;8.980;2023-12-07T14:32:58;17.25;;;9.95;;
60979;SDS011;46851;49.160;8.980;2023-12-07T14:35:24;20.15;;;9.35;;